createdAt,value
2023-06-01T00:02:02.328Z,13.00
2023-06-01T00:04:33.283Z,13.00
2023-06-01T00:07:03.356Z,13.10
2023-06-01T00:09:32.775Z,13.10
2023-06-01T00:12:00.036Z,13.10
2023-06-01T00:14:31.819Z,13.00
2023-06-01T00:17:05.158Z,12.90
2023-06-01T00:19:32.607Z,12.80
2023-06-01T00:22:03.244Z,12.80
2023-06-01T00:24:35.622Z,12.90
2023-06-01T00:27:09.091Z,12.90
2023-06-01T00:29:42.733Z,12.90
2023-06-01T00:32:12.204Z,13.00
2023-06-01T00:34:42.598Z,13.00
2023-06-01T00:37:12.263Z,12.90
2023-06-01T00:39:41.980Z,12.90
2023-06-01T00:42:16.618Z,12.90
2023-06-01T00:44:45.200Z,12.70
2023-06-01T00:47:16.717Z,12.70
2023-06-01T00:49:47.001Z,12.70
2023-06-01T00:52:16.273Z,12.80
2023-06-01T00:54:46.614Z,12.80
2023-06-01T00:57:20.396Z,12.70
2023-06-01T00:59:54.029Z,12.80
2023-06-01T01:02:25.403Z,12.80
2023-06-01T01:04:54.593Z,12.70
2023-06-01T01:07:41.693Z,12.70
2023-06-01T01:10:50.365Z,12.70
2023-06-01T01:13:48.584Z,12.70
2023-06-01T01:16:41.669Z,12.50
2023-06-01T01:23:08.027Z,12.30
2023-06-01T01:26:15.211Z,12.30
2023-06-01T01:29:13.389Z,12.30
2023-06-01T01:34:43.845Z,12.20
2023-06-01T01:37:17.602Z,12.20
2023-06-01T01:39:52.545Z,12.20
2023-06-01T01:42:23.761Z,12.10
2023-06-01T01:44:57.061Z,12.30
2023-06-01T01:47:52.233Z,12.30
2023-06-01T01:50:30.119Z,12.30
2023-06-01T01:53:01.380Z,12.30
2023-06-01T01:58:45.781Z,12.40
2023-06-01T02:01:18.891Z,12.30
2023-06-01T02:03:49.856Z,12.10
2023-06-01T02:06:21.698Z,12.10
2023-06-01T02:08:52.215Z,12.10
2023-06-01T02:11:28.604Z,12.10
2023-06-01T02:13:59.381Z,12.10
2023-06-01T02:16:30.179Z,12.00
2023-06-01T02:19:02.527Z,12.00
2023-06-01T02:21:32.779Z,11.90
2023-06-01T02:24:09.751Z,11.90
2023-06-01T02:26:47.846Z,11.90
2023-06-01T02:29:22.939Z,11.70
2023-06-01T02:31:54.637Z,11.80
2023-06-01T02:34:23.830Z,11.80
2023-06-01T02:37:07.704Z,11.90
2023-06-01T02:39:38.181Z,11.90
2023-06-01T02:42:12.330Z,11.90
2023-06-01T02:44:43.091Z,11.90
2023-06-01T02:47:13.491Z,11.90
2023-06-01T02:49:44.474Z,11.90
2023-06-01T02:52:16.784Z,11.80
2023-06-01T02:54:48.956Z,11.80
2023-06-01T02:57:57.410Z,11.90
2023-06-01T03:00:28.096Z,11.80
2023-06-01T03:02:56.155Z,11.80
2023-06-01T03:05:26.668Z,11.80
2023-06-01T03:08:19.997Z,11.70
2023-06-01T03:10:50.196Z,11.50
2023-06-01T03:13:28.630Z,11.50
2023-06-01T03:16:24.464Z,11.50
2023-06-01T03:19:09.215Z,11.50
2023-06-01T03:21:40.013Z,11.50
2023-06-01T03:24:12.711Z,11.50
2023-06-01T03:26:43.148Z,11.50
2023-06-01T03:29:14.407Z,11.50
2023-06-01T03:31:43.452Z,11.60
2023-06-01T03:34:14.683Z,11.60
2023-06-01T03:36:43.240Z,11.50
2023-06-01T03:39:15.792Z,11.50
2023-06-01T03:41:45.648Z,11.50
2023-06-01T03:44:15.562Z,11.50
2023-06-01T03:46:45.445Z,11.50
2023-06-01T03:49:17.078Z,11.60
2023-06-01T03:51:47.898Z,11.60
2023-06-01T03:54:24.554Z,11.60
2023-06-01T03:56:54.048Z,11.60
2023-06-01T03:59:26.655Z,11.60
2023-06-01T04:02:00.143Z,11.60
2023-06-01T04:04:29.782Z,11.60
2023-06-01T04:07:04.963Z,11.60
2023-06-01T04:09:36.553Z,11.70
2023-06-01T04:12:09.409Z,11.70
2023-06-01T04:14:38.669Z,11.80
2023-06-01T04:17:10.417Z,11.80
2023-06-01T04:19:44.343Z,11.90
2023-06-01T04:22:15.363Z,11.90
2023-06-01T04:24:45.655Z,12.00
2023-06-01T04:27:17.374Z,12.00
2023-06-01T04:29:49.427Z,11.90
2023-06-01T04:32:23.652Z,12.00
2023-06-01T04:35:09.708Z,12.10
2023-06-01T04:37:43.851Z,12.20
2023-06-01T04:40:16.708Z,12.20
2023-06-01T04:43:06.230Z,12.30
2023-06-01T04:45:37.033Z,12.30
2023-06-01T04:48:09.063Z,12.50
2023-06-01T04:51:06.517Z,12.50
2023-06-01T04:53:40.449Z,12.60
2023-06-01T04:56:09.922Z,12.70
2023-06-01T04:58:38.248Z,12.80
2023-06-01T05:01:10.888Z,12.90
2023-06-01T05:03:39.485Z,13.00
2023-06-01T05:06:18.138Z,13.20
2023-06-01T05:09:00.055Z,13.30
2023-06-01T05:11:30.565Z,13.30
2023-06-01T05:14:05.718Z,13.50
2023-06-01T05:16:37.231Z,13.60
2023-06-01T05:19:09.838Z,13.80
2023-06-01T05:21:42.098Z,13.90
2023-06-01T05:24:11.635Z,14.00
2023-06-01T05:26:42.150Z,14.20
2023-06-01T05:29:12.920Z,14.30
2023-06-01T05:31:44.668Z,14.40
2023-06-01T05:34:15.518Z,14.60
2023-06-01T05:36:51.338Z,14.70
2023-06-01T05:39:30.364Z,14.90
2023-06-01T05:42:00.234Z,15.00
2023-06-01T05:44:35.682Z,15.10
2023-06-01T05:47:05.735Z,15.20
2023-06-01T05:49:36.577Z,15.30
2023-06-01T05:52:10.846Z,15.40
2023-06-01T05:54:44.102Z,15.50
2023-06-01T05:57:19.366Z,15.60
2023-06-01T05:59:49.930Z,15.70
2023-06-01T06:02:22.269Z,15.80
2023-06-01T06:04:50.322Z,16.00
2023-06-01T06:07:20.778Z,16.10
2023-06-01T06:09:51.651Z,16.30
2023-06-01T06:12:22.653Z,16.50
2023-06-01T06:14:56.154Z,16.60
2023-06-01T06:17:24.415Z,16.80
2023-06-01T06:19:53.688Z,16.90
2023-06-01T06:22:25.094Z,17.10
2023-06-01T06:24:55.317Z,17.20
2023-06-01T06:27:38.288Z,17.40
2023-06-01T06:30:11.357Z,17.50
2023-06-01T06:32:40.128Z,17.70
2023-06-01T06:35:17.265Z,17.70
2023-06-01T06:37:48.500Z,17.80
2023-06-01T06:40:19.550Z,18.00
2023-06-01T06:42:50.075Z,18.10
2023-06-01T06:45:22.373Z,18.30
2023-06-01T06:47:53.690Z,18.40
2023-06-01T06:50:23.108Z,18.50
2023-06-01T06:53:02.058Z,18.60
2023-06-01T06:55:31.051Z,18.70
2023-06-01T06:58:01.005Z,18.80
2023-06-01T07:00:31.634Z,18.90
2023-06-01T07:03:03.019Z,19.00
2023-06-01T07:05:36.144Z,19.20
2023-06-01T07:08:07.923Z,19.30
2023-06-01T07:10:38.669Z,19.40
2023-06-01T07:13:08.411Z,19.50
2023-06-01T07:15:40.465Z,19.60
2023-06-01T07:18:12.120Z,19.80
2023-06-01T07:20:49.273Z,19.90
2023-06-01T07:23:17.942Z,19.90
2023-06-01T07:25:48.963Z,20.10
2023-06-01T07:28:20.947Z,20.20
2023-06-01T07:30:53.910Z,20.20
2023-06-01T07:33:24.305Z,20.40
2023-06-01T07:35:55.378Z,20.60
2023-06-01T07:38:24.928Z,20.90
2023-06-01T07:40:54.919Z,21.10
2023-06-01T07:43:25.411Z,21.30
2023-06-01T07:45:58.009Z,21.40
2023-06-01T07:48:49.172Z,21.50
2023-06-01T07:51:41.612Z,21.40
2023-06-01T07:54:35.703Z,21.40
2023-06-01T07:57:33.029Z,21.50
2023-06-01T08:00:26.906Z,21.80
2023-06-01T08:37:14.724Z,22.80
2023-06-01T08:39:42.385Z,23.10
2023-06-01T08:42:49.821Z,23.20
2023-06-01T08:45:20.977Z,23.30
2023-06-01T08:47:52.765Z,23.40
2023-06-01T08:50:21.501Z,23.40
2023-06-01T08:52:56.715Z,23.50
2023-06-01T08:55:27.749Z,23.60
2023-06-01T08:57:58.076Z,23.70
2023-06-01T09:00:30.044Z,23.80
2023-06-01T09:02:58.304Z,23.80
2023-06-01T09:08:17.666Z,23.90
2023-06-01T09:10:48.618Z,24.00
2023-06-01T09:13:35.503Z,24.10
2023-06-01T09:16:08.090Z,24.10
2023-06-01T09:18:37.952Z,23.90
2023-06-01T09:21:18.480Z,23.90
2023-06-01T09:23:46.065Z,23.90
2023-06-01T09:26:16.186Z,23.90
2023-06-01T09:29:00.751Z,23.70
2023-06-01T09:31:49.071Z,23.90
2023-06-01T09:34:22.872Z,24.10
2023-06-01T09:36:58.110Z,24.30
2023-06-01T09:39:37.125Z,24.30
2023-06-01T09:42:12.612Z,24.50
2023-06-01T09:44:44.622Z,24.60
2023-06-01T09:47:16.208Z,24.50
2023-06-01T09:49:49.419Z,24.60
2023-06-01T09:52:21.292Z,24.80
2023-06-01T09:54:52.714Z,24.90
2023-06-01T09:57:33.752Z,24.70
2023-06-01T10:00:10.256Z,24.90
2023-06-01T10:02:42.495Z,25.00
2023-06-01T10:05:12.691Z,25.10
2023-06-01T10:07:42.896Z,25.10
2023-06-01T10:10:17.076Z,25.20
2023-06-01T10:12:49.975Z,25.40
2023-06-01T10:17:55.017Z,25.40
2023-06-01T10:20:27.172Z,25.50
2023-06-01T10:23:00.570Z,25.50
2023-06-01T10:25:35.430Z,25.50
2023-06-01T10:28:28.154Z,25.60
2023-06-01T10:31:33.545Z,25.70
2023-06-01T10:34:02.398Z,25.80
2023-06-01T10:36:59.965Z,25.90
2023-06-01T10:39:39.888Z,25.80
2023-06-01T10:42:16.594Z,25.60
2023-06-01T10:44:45.798Z,25.70
2023-06-01T10:47:24.442Z,25.70
2023-06-01T10:49:58.780Z,25.80
2023-06-01T10:52:46.743Z,25.80
2023-06-01T10:55:35.575Z,25.90
2023-06-01T10:58:25.020Z,25.90
2023-06-01T11:00:58.827Z,26.00
2023-06-01T11:03:48.977Z,25.90
2023-06-01T11:06:38.102Z,26.00
2023-06-01T11:09:12.435Z,26.00
2023-06-01T11:12:01.810Z,26.00
2023-06-01T11:14:32.480Z,26.00
2023-06-01T11:17:28.293Z,26.20
2023-06-01T11:20:07.361Z,26.20
2023-06-01T11:22:40.972Z,26.20
2023-06-01T11:25:15.069Z,26.10
2023-06-01T11:27:49.240Z,26.10
2023-06-01T11:30:20.729Z,26.10
2023-06-01T11:32:50.245Z,26.20
2023-06-01T11:35:25.286Z,26.20
2023-06-01T11:37:59.114Z,26.10
2023-06-01T11:40:31.925Z,25.90
2023-06-01T11:43:04.604Z,26.00
2023-06-01T11:45:34.082Z,26.00
2023-06-01T11:48:13.092Z,26.10
2023-06-01T11:50:49.048Z,26.10
2023-06-01T11:53:20.075Z,26.10
2023-06-01T11:55:58.763Z,26.10
2023-06-01T11:58:46.323Z,26.20
2023-06-01T12:01:14.312Z,26.30
2023-06-01T12:03:54.005Z,26.40
2023-06-01T12:06:24.084Z,26.40
2023-06-01T12:08:56.086Z,26.50
2023-06-01T12:11:32.503Z,26.40
2023-06-01T12:14:20.292Z,26.40
2023-06-01T12:17:20.422Z,26.50
2023-06-01T12:19:55.346Z,26.60
2023-06-01T12:22:39.554Z,26.70
2023-06-01T12:25:13.373Z,26.70
2023-06-01T12:27:43.671Z,26.60
2023-06-01T12:30:24.461Z,26.50
2023-06-01T12:32:52.689Z,26.60
2023-06-01T12:35:27.169Z,26.70
2023-06-01T12:38:15.501Z,26.80
2023-06-01T12:40:46.427Z,26.80
2023-06-01T12:43:24.750Z,26.70
2023-06-01T12:45:55.277Z,26.70
2023-06-01T12:48:38.950Z,26.60
2023-06-01T12:51:11.955Z,26.70
2023-06-01T12:53:42.926Z,26.60
2023-06-01T12:56:15.956Z,26.70
2023-06-01T12:58:48.816Z,26.70
2023-06-01T13:01:20.952Z,26.70
2023-06-01T13:03:50.260Z,26.70
2023-06-01T13:06:19.353Z,26.70
2023-06-01T13:08:47.751Z,26.80
2023-06-01T13:11:20.301Z,26.80
2023-06-01T13:13:52.698Z,26.80
2023-06-01T13:16:25.056Z,26.80
2023-06-01T13:18:55.530Z,26.90
2023-06-01T13:21:24.114Z,27.00
2023-06-01T13:23:54.219Z,26.90
2023-06-01T13:26:23.858Z,26.70
2023-06-01T13:28:52.254Z,26.70
2023-06-01T13:31:24.105Z,26.70
2023-06-01T13:34:00.863Z,26.70
2023-06-01T13:36:31.166Z,26.80
2023-06-01T13:39:01.198Z,26.80
2023-06-01T13:41:35.069Z,26.90
2023-06-01T13:44:04.810Z,26.80
2023-06-01T13:46:37.503Z,26.90
2023-06-01T13:49:08.223Z,26.80
2023-06-01T13:51:41.513Z,26.80
2023-06-01T13:54:12.297Z,26.80
2023-06-01T13:56:42.614Z,26.80
2023-06-01T13:59:18.907Z,26.70
2023-06-01T14:01:48.468Z,26.70
2023-06-01T14:04:28.370Z,26.60
2023-06-01T14:07:04.107Z,26.60
2023-06-01T14:09:35.225Z,26.80
2023-06-01T14:12:07.488Z,26.70
2023-06-01T14:14:37.568Z,26.80
2023-06-01T14:17:06.445Z,26.70
2023-06-01T14:19:36.055Z,26.80
2023-06-01T14:22:05.922Z,26.70
2023-06-01T14:24:37.360Z,26.80
2023-06-01T14:27:05.214Z,26.80
2023-06-01T14:29:33.054Z,26.90
2023-06-01T14:32:02.528Z,26.90
2023-06-01T14:34:32.626Z,26.90
2023-06-01T14:37:03.441Z,26.90
2023-06-01T14:39:33.456Z,26.80
2023-06-01T14:42:02.371Z,26.90
2023-06-01T14:47:12.986Z,26.70
2023-06-01T14:49:47.190Z,26.80
2023-06-01T14:52:18.503Z,26.80
2023-06-01T14:54:47.408Z,26.80
2023-06-01T14:57:18.540Z,26.90
2023-06-01T15:00:02.612Z,26.90
2023-06-01T15:02:36.450Z,26.80
2023-06-01T15:05:07.562Z,26.70
2023-06-01T15:07:36.727Z,26.70
2023-06-01T15:10:08.300Z,26.70
2023-06-01T15:12:39.602Z,26.70
2023-06-01T15:15:08.518Z,26.60
2023-06-01T15:17:39.977Z,26.50
2023-06-01T15:20:12.389Z,26.50
2023-06-01T15:22:41.359Z,26.50
2023-06-01T15:25:12.326Z,26.40
2023-06-01T15:27:44.080Z,26.40
2023-06-01T15:30:15.301Z,26.40
2023-06-01T15:32:48.200Z,26.40
2023-06-01T15:35:26.428Z,26.30
2023-06-01T15:37:58.350Z,26.30
2023-06-01T15:40:29.014Z,26.30
2023-06-01T15:42:59.422Z,26.30
2023-06-01T15:45:30.877Z,26.20
2023-06-01T15:48:01.233Z,26.30
2023-06-01T15:50:32.746Z,26.20
2023-06-01T15:53:02.152Z,26.10
2023-06-01T15:55:33.060Z,26.10
2023-06-01T15:58:02.695Z,26.00
2023-06-01T16:00:32.838Z,26.10
2023-06-01T16:03:02.402Z,26.00
2023-06-01T16:05:33.829Z,26.00
2023-06-01T16:08:03.577Z,25.90
2023-06-01T16:10:34.333Z,26.00
2023-06-01T16:13:03.772Z,26.00
2023-06-01T16:15:38.162Z,25.90
2023-06-01T16:18:08.600Z,25.90
2023-06-01T16:20:39.049Z,25.90
2023-06-01T16:23:08.464Z,25.80
2023-06-01T16:25:38.514Z,25.80
2023-06-01T16:28:08.665Z,25.70
2023-06-01T16:30:37.878Z,25.70
2023-06-01T16:33:07.637Z,25.50
2023-06-01T16:35:38.154Z,25.60
2023-06-01T16:38:08.571Z,25.50
2023-06-01T16:40:39.346Z,25.50
2023-06-01T16:43:09.529Z,25.40
2023-06-01T16:45:39.512Z,25.40
2023-06-01T16:48:09.772Z,25.30
2023-06-01T16:50:49.218Z,25.30
2023-06-01T16:53:16.868Z,25.20
2023-06-01T16:55:47.824Z,25.20
2023-06-01T16:58:21.618Z,25.10
2023-06-01T17:00:52.733Z,25.00
2023-06-01T17:03:27.700Z,25.00
2023-06-01T17:05:59.297Z,25.00
2023-06-01T17:11:09.991Z,24.90
2023-06-01T17:13:40.270Z,24.80
2023-06-01T17:16:09.971Z,24.70
2023-06-01T17:18:40.911Z,24.70
2023-06-01T17:21:10.791Z,24.60
2023-06-01T17:23:39.906Z,24.60
2023-06-01T17:26:10.635Z,24.50
2023-06-01T17:28:42.365Z,24.50
2023-06-01T17:31:13.347Z,24.40
2023-06-01T17:33:42.555Z,24.30
2023-06-01T17:36:14.039Z,24.20
2023-06-01T17:38:47.033Z,24.20
2023-06-01T17:41:17.869Z,24.10
2023-06-01T17:43:49.374Z,24.00
2023-06-01T17:46:20.699Z,24.00
2023-06-01T17:48:53.979Z,23.90
2023-06-01T17:51:24.455Z,23.80
2023-06-01T17:53:54.013Z,23.70
2023-06-01T17:56:26.061Z,23.60
2023-06-01T17:58:58.588Z,23.50
2023-06-01T18:01:31.918Z,23.40
2023-06-01T18:04:01.523Z,23.30
2023-06-01T18:06:32.914Z,23.20
2023-06-01T18:09:04.462Z,23.10
2023-06-01T18:11:36.539Z,23.00
2023-06-01T18:14:07.980Z,22.90
2023-06-01T18:16:40.589Z,22.80
2023-06-01T18:19:09.782Z,22.70
2023-06-01T18:21:42.019Z,22.60
2023-06-01T18:24:09.798Z,22.50
2023-06-01T18:26:43.967Z,22.40
2023-06-01T18:29:14.678Z,22.30
2023-06-01T18:31:44.453Z,22.20
2023-06-01T18:34:15.166Z,22.10
2023-06-01T18:36:50.737Z,22.00
2023-06-01T18:39:22.248Z,21.90
2023-06-01T18:41:55.975Z,21.70
2023-06-01T18:44:24.779Z,21.50
2023-06-01T18:46:57.763Z,21.50
2023-06-01T18:49:28.393Z,21.40
2023-06-01T18:52:00.757Z,21.30
2023-06-01T18:54:33.569Z,21.10
2023-06-01T18:57:03.293Z,21.10
2023-06-01T18:59:39.178Z,21.00
2023-06-01T19:02:27.722Z,20.80
2023-06-01T19:05:10.589Z,20.70
2023-06-01T19:07:47.114Z,20.60
2023-06-01T19:10:17.374Z,20.50
2023-06-01T19:12:47.833Z,20.40
2023-06-01T19:15:23.190Z,20.30
2023-06-01T19:17:52.859Z,20.30
2023-06-01T19:20:43.405Z,20.30
2023-06-01T19:23:12.725Z,20.20
2023-06-01T19:25:45.035Z,20.20
2023-06-01T19:28:16.951Z,20.10
2023-06-01T19:30:51.272Z,20.00
2023-06-01T19:33:26.198Z,20.00
2023-06-01T19:35:56.273Z,19.80
2023-06-01T19:38:27.323Z,19.70
2023-06-01T19:40:56.959Z,19.70
2023-06-01T19:43:44.765Z,19.60
2023-06-01T19:46:29.361Z,19.50
2023-06-01T19:49:05.017Z,19.30
2023-06-01T19:51:36.608Z,19.30
2023-06-01T19:54:06.644Z,19.20
2023-06-01T19:56:48.327Z,19.20
2023-06-01T19:59:30.824Z,19.20
2023-06-01T20:02:04.954Z,19.10
2023-06-01T20:04:40.264Z,19.00
2023-06-01T20:07:30.996Z,18.90
2023-06-01T20:09:59.036Z,18.70
2023-06-01T20:12:28.676Z,18.60
2023-06-01T20:15:00.441Z,18.60
2023-06-01T20:17:33.295Z,18.50
2023-06-01T20:20:08.810Z,18.40
2023-06-01T20:22:42.188Z,18.30
2023-06-01T20:25:13.779Z,18.40
2023-06-01T20:27:42.874Z,18.30
2023-06-01T20:31:01.783Z,18.30
2023-06-01T20:33:38.336Z,18.10
2023-06-01T20:36:10.047Z,18.10
2023-06-01T20:38:47.636Z,18.00
2023-06-01T20:41:25.980Z,17.90
2023-06-01T20:43:53.622Z,17.80
2023-06-01T20:46:28.665Z,17.80
2023-06-01T20:49:00.999Z,17.80
2023-06-01T20:51:49.200Z,17.70
2023-06-01T20:54:21.652Z,17.70
2023-06-01T20:57:10.539Z,17.70
2023-06-01T20:59:41.697Z,17.60
2023-06-01T21:02:15.918Z,17.60
2023-06-01T21:04:53.661Z,17.40
2023-06-01T21:07:25.231Z,17.40
2023-06-01T21:09:59.115Z,17.30
2023-06-01T21:12:28.973Z,17.30
2023-06-01T21:14:58.372Z,17.30
2023-06-01T21:17:28.828Z,17.20
2023-06-01T21:19:57.029Z,17.10
2023-06-01T21:22:27.414Z,17.10
2023-06-01T21:24:58.653Z,17.10
2023-06-01T21:27:27.373Z,17.00
2023-06-01T21:29:59.232Z,17.00
2023-06-01T21:32:28.558Z,16.90
2023-06-01T21:35:00.695Z,16.90
2023-06-01T21:37:29.935Z,16.80
2023-06-01T21:40:00.658Z,16.70
2023-06-01T21:42:31.256Z,16.70
2023-06-01T21:45:03.820Z,16.70
2023-06-01T21:47:30.870Z,16.70
2023-06-01T21:50:04.520Z,16.60
2023-06-01T21:52:36.209Z,16.60
2023-06-01T21:55:06.873Z,16.50
2023-06-01T21:57:38.211Z,16.50
2023-06-01T22:00:13.891Z,16.50
2023-06-01T22:02:44.843Z,16.40
2023-06-01T22:05:17.497Z,16.50
2023-06-01T22:07:45.624Z,16.30
2023-06-01T22:10:16.735Z,16.40
2023-06-01T22:12:46.352Z,16.30
2023-06-01T22:15:19.609Z,16.20
2023-06-01T22:17:46.702Z,16.20
2023-06-01T22:20:15.737Z,16.00
2023-06-01T22:22:46.312Z,15.90
2023-06-01T22:25:17.112Z,15.90
2023-06-01T22:27:45.751Z,15.90
2023-06-01T22:30:17.090Z,16.00
2023-06-01T22:32:49.432Z,16.00
2023-06-01T22:35:21.061Z,15.90
2023-06-01T22:37:53.026Z,15.90
2023-06-01T22:40:25.282Z,15.90
2023-06-01T22:42:57.050Z,15.90
2023-06-01T22:45:29.113Z,15.70
2023-06-01T22:47:59.862Z,15.70
2023-06-01T22:50:32.675Z,15.70
2023-06-01T22:53:03.238Z,15.70
2023-06-01T22:55:35.011Z,15.60
2023-06-01T22:58:06.804Z,15.60
2023-06-01T23:00:38.736Z,15.60
2023-06-01T23:03:07.144Z,15.60
2023-06-01T23:05:44.094Z,15.60
2023-06-01T23:08:25.835Z,15.50
2023-06-01T23:10:56.886Z,15.50
2023-06-01T23:13:32.194Z,15.40
2023-06-01T23:16:04.050Z,15.30
2023-06-01T23:18:33.834Z,15.30
2023-06-01T23:21:01.991Z,15.30
2023-06-01T23:23:33.233Z,15.30
2023-06-01T23:26:10.049Z,15.30
2023-06-01T23:29:18.178Z,15.20
2023-06-01T23:31:53.192Z,15.20
2023-06-01T23:34:23.722Z,15.10
2023-06-01T23:36:58.940Z,15.10
2023-06-01T23:39:30.176Z,15.00
2023-06-01T23:42:03.649Z,15.00
2023-06-01T23:44:37.593Z,14.90
2023-06-01T23:47:07.694Z,14.80
2023-06-01T23:49:42.591Z,14.90
2023-06-01T23:52:13.564Z,14.80
2023-06-01T23:54:42.014Z,14.90
2023-06-01T23:57:11.224Z,14.90
2023-06-01T23:59:43.588Z,14.90
